createdAt,value
2023-01-23T00:01:34.078Z,102977.56
2023-01-23T00:05:35.540Z,102975.75
2023-01-23T00:09:37.073Z,102980.06
2023-01-23T00:13:38.621Z,102982.56
2023-01-23T00:17:42.866Z,102983.75
2023-01-23T00:21:44.414Z,102987.22
2023-01-23T00:25:45.816Z,102982.97
2023-01-23T00:29:47.557Z,102983.13
2023-01-23T00:33:52.711Z,102982.38
2023-01-23T00:37:54.309Z,102976.91
2023-01-23T00:41:55.923Z,102973.09
2023-01-23T00:45:57.586Z,102980.72
2023-01-23T00:49:59.264Z,102990.56
2023-01-23T00:54:01.555Z,102993.47
2023-01-23T00:58:03.026Z,102999.22
2023-01-23T01:02:04.485Z,102996.06
2023-01-23T01:06:06.031Z,103005.28
2023-01-23T01:10:07.966Z,103009.06
2023-01-23T01:14:10.075Z,103010.75
2023-01-23T01:18:11.545Z,103015.13
2023-01-23T01:22:12.981Z,103014.69
2023-01-23T01:26:14.511Z,103016.09
2023-01-23T01:30:18.448Z,103007.44
2023-01-23T01:34:22.149Z,103023.56
2023-01-23T01:38:24.946Z,103030.38
2023-01-23T01:42:28.377Z,103042.31
2023-01-23T01:46:30.930Z,103040.72
2023-01-23T01:50:32.454Z,103042.50
2023-01-23T01:54:43.972Z,103043.88
2023-01-23T01:58:49.119Z,103046.19
2023-01-23T02:02:58.812Z,103039.75
2023-01-23T02:07:05.262Z,103049.44
2023-01-23T02:11:07.465Z,103044.25
2023-01-23T02:15:09.211Z,103049.22
2023-01-23T02:19:34.824Z,103040.28
2023-01-23T02:23:36.435Z,103040.94
2023-01-23T02:27:37.916Z,103043.91
2023-01-23T02:31:42.731Z,103040.03
2023-01-23T02:35:44.330Z,103039.97
2023-01-23T02:39:45.776Z,103042.78
2023-01-23T02:43:50.673Z,103051.38
2023-01-23T02:47:52.094Z,103052.03
2023-01-23T02:51:55.172Z,103062.41
2023-01-23T02:55:58.648Z,103067.63
2023-01-23T03:00:20.669Z,103067.06
2023-01-23T03:04:22.444Z,103077.75
2023-01-23T03:08:23.913Z,103080.00
2023-01-23T03:12:25.371Z,103083.25
2023-01-23T03:16:28.566Z,103072.69
2023-01-23T03:20:30.101Z,103086.31
2023-01-23T03:24:34.197Z,103088.72
2023-01-23T03:28:53.929Z,103087.88
2023-01-23T03:32:55.369Z,103091.81
2023-01-23T03:36:57.175Z,103096.56
2023-01-23T03:41:17.073Z,103095.84
2023-01-23T03:45:18.515Z,103105.31
2023-01-23T03:49:20.142Z,103103.66
2023-01-23T03:53:21.587Z,103112.69
2023-01-23T03:57:23.043Z,103115.56
2023-01-23T04:01:25.350Z,103119.59
2023-01-23T04:05:26.825Z,103113.28
2023-01-23T04:09:28.285Z,103118.53
2023-01-23T04:13:30.105Z,103118.97
2023-01-23T04:17:31.616Z,103131.03
2023-01-23T04:21:33.093Z,103136.50
2023-01-23T04:25:34.541Z,103130.94
2023-01-23T04:29:36.025Z,103141.75
2023-01-23T04:33:37.484Z,103142.03
2023-01-23T04:37:39.002Z,103135.31
2023-01-23T04:41:40.440Z,103133.97
2023-01-23T04:45:42.625Z,103139.53
2023-01-23T04:49:44.058Z,103142.75
2023-01-23T04:53:45.462Z,103141.66
2023-01-23T04:57:46.874Z,103153.50
2023-01-23T05:01:48.399Z,103151.38
2023-01-23T05:05:49.870Z,103152.16
2023-01-23T05:09:51.322Z,103141.88
2023-01-23T05:13:52.831Z,103138.69
2023-01-23T05:17:54.283Z,103131.47
2023-01-23T05:21:55.705Z,103142.91
2023-01-23T05:25:57.162Z,103143.81
2023-01-23T05:29:58.650Z,103143.25
2023-01-23T05:34:00.131Z,103148.38
2023-01-23T05:38:01.638Z,103145.53
2023-01-23T05:42:03.168Z,103148.13
2023-01-23T05:46:04.855Z,103152.34
2023-01-23T05:50:08.028Z,103147.06
2023-01-23T05:54:10.453Z,103160.22
2023-01-23T05:58:14.425Z,103161.97
2023-01-23T06:02:17.349Z,103169.16
2023-01-23T06:06:18.809Z,103179.78
2023-01-23T06:10:20.467Z,103186.91
2023-01-23T06:14:22.071Z,103191.88
2023-01-23T06:18:23.657Z,103187.00
2023-01-23T06:22:25.127Z,103187.50
2023-01-23T06:26:26.856Z,103197.38
2023-01-23T06:30:28.626Z,103191.88
2023-01-23T06:34:30.142Z,103193.47
2023-01-23T06:38:32.267Z,103198.44
2023-01-23T06:42:33.758Z,103201.28
2023-01-23T06:46:35.278Z,103206.88
2023-01-23T06:50:39.751Z,103214.59
2023-01-23T06:54:41.294Z,103216.16
2023-01-23T06:58:45.306Z,103223.44
2023-01-23T07:02:46.841Z,103211.53
2023-01-23T07:06:48.347Z,103223.59
2023-01-23T07:10:49.875Z,103226.56
2023-01-23T07:14:51.311Z,103223.56
2023-01-23T07:18:53.924Z,103227.69
2023-01-23T07:22:56.135Z,103242.72
2023-01-23T07:26:57.588Z,103240.19
2023-01-23T07:30:59.565Z,103237.28
2023-01-23T07:35:01.114Z,103246.25
2023-01-23T07:39:02.703Z,103237.78
2023-01-23T07:43:04.489Z,103228.09
2023-01-23T07:47:05.888Z,103238.88
2023-01-23T07:51:07.542Z,103241.97
2023-01-23T07:55:09.406Z,103246.75
2023-01-23T07:59:12.862Z,103247.81
2023-01-23T08:03:14.376Z,103251.09
2023-01-23T08:07:15.807Z,103256.00
2023-01-23T08:11:17.244Z,103246.34
2023-01-23T08:15:18.644Z,103252.41
2023-01-23T08:19:20.166Z,103250.53
2023-01-23T08:23:25.756Z,103255.13
2023-01-23T08:27:27.197Z,103267.41
2023-01-23T08:31:28.857Z,103264.91
2023-01-23T08:35:30.564Z,103271.72
2023-01-23T08:39:32.189Z,103285.25
2023-01-23T08:43:33.649Z,103294.06
2023-01-23T08:47:36.440Z,103295.97
2023-01-23T08:51:38.496Z,103298.47
2023-01-23T08:55:40.634Z,103299.41
2023-01-23T08:59:42.605Z,103308.00
2023-01-23T09:03:44.363Z,103314.06
2023-01-23T09:07:46.933Z,103321.88
2023-01-23T09:11:48.379Z,103333.56
2023-01-23T09:15:50.037Z,103337.53
2023-01-23T09:19:51.541Z,103341.66
2023-01-23T09:23:52.982Z,103339.75
2023-01-23T09:27:54.413Z,103351.66
2023-01-23T09:31:55.910Z,103359.75
2023-01-23T09:35:57.782Z,103368.81
2023-01-23T09:40:00.515Z,103368.53
2023-01-23T09:44:07.531Z,103366.06
2023-01-23T09:48:22.643Z,103357.13
2023-01-23T09:52:54.850Z,103360.88
2023-01-23T09:56:59.454Z,103356.41
2023-01-23T10:01:00.976Z,103360.19
2023-01-23T10:05:02.981Z,103368.06
2023-01-23T10:09:26.288Z,103366.88
2023-01-23T10:13:33.748Z,103362.47
2023-01-23T10:17:48.457Z,103367.69
2023-01-23T10:21:59.719Z,103365.88
2023-01-23T10:26:03.487Z,103367.09
2023-01-23T10:30:08.055Z,103371.84
2023-01-23T10:34:09.451Z,103371.66
2023-01-23T10:38:30.921Z,103369.53
2023-01-23T10:42:32.369Z,103370.59
2023-01-23T10:46:39.431Z,103370.84
2023-01-23T10:50:41.563Z,103370.38
2023-01-23T10:54:46.896Z,103368.25
2023-01-23T10:58:49.284Z,103365.19
2023-01-23T11:02:50.847Z,103361.63
2023-01-23T11:07:16.449Z,103366.91
2023-01-23T11:11:19.535Z,103367.84
2023-01-23T11:15:32.365Z,103357.59
2023-01-23T11:19:36.835Z,103356.69
2023-01-23T11:23:38.329Z,103354.78
2023-01-23T11:27:39.830Z,103347.78
2023-01-23T11:31:42.096Z,103340.84
2023-01-23T11:36:29.938Z,103346.88
2023-01-23T11:40:31.515Z,103341.13
2023-01-23T11:44:45.014Z,103335.28
2023-01-23T11:49:08.298Z,103342.31
2023-01-23T11:53:42.032Z,103339.06
2023-01-23T11:58:14.429Z,103337.22
2023-01-23T12:02:41.745Z,103335.56
2023-01-23T12:06:50.402Z,103323.03
2023-01-23T12:11:18.002Z,103316.38
2023-01-23T12:15:42.935Z,103316.06
2023-01-23T12:20:12.006Z,103314.41
2023-01-23T12:24:30.855Z,103313.34
2023-01-23T12:29:09.407Z,103308.91
2023-01-23T12:33:38.376Z,103310.75
2023-01-23T12:37:58.020Z,103308.91
2023-01-23T12:42:03.943Z,103308.25
2023-01-23T12:46:22.251Z,103308.34
2023-01-23T12:50:40.680Z,103297.19
2023-01-23T12:54:55.823Z,103305.63
2023-01-23T12:59:29.743Z,103300.22
2023-01-23T13:03:44.887Z,103294.66
2023-01-23T13:08:07.279Z,103305.03
2023-01-23T13:12:21.681Z,103312.59
2023-01-23T13:16:31.062Z,103310.50
2023-01-23T13:21:11.014Z,103319.41
2023-01-23T13:25:18.672Z,103322.63
2023-01-23T13:29:58.816Z,103315.72
2023-01-23T13:34:20.919Z,103317.19
2023-01-23T13:38:22.298Z,103319.88
2023-01-23T13:42:26.755Z,103323.91
2023-01-23T14:22:11.896Z,103327.53
2023-01-23T14:26:18.056Z,103318.47
2023-01-23T14:30:26.678Z,103334.00
2023-01-23T14:34:28.571Z,103332.03
2023-01-23T14:38:34.323Z,103328.75
2023-01-23T14:42:35.880Z,103340.63
2023-01-23T14:46:41.494Z,103345.31
2023-01-23T14:50:43.134Z,103337.09
2023-01-23T14:54:53.366Z,103340.13
2023-01-23T14:58:58.711Z,103343.91
2023-01-23T15:03:00.358Z,103347.09
2023-01-23T15:07:02.927Z,103351.25
2023-01-23T15:11:06.576Z,103351.81
2023-01-23T15:15:18.421Z,103366.97
2023-01-23T15:19:24.792Z,103364.69
2023-01-23T15:23:32.051Z,103372.06
2023-01-23T15:27:35.673Z,103367.69
2023-01-23T15:31:39.948Z,103367.59
2023-01-23T15:35:41.563Z,103373.16
2023-01-23T15:39:46.152Z,103363.50
2023-01-23T15:43:47.627Z,103367.81
2023-01-23T15:47:49.070Z,103380.06
2023-01-23T15:51:51.180Z,103381.75
2023-01-23T15:55:52.772Z,103374.16
2023-01-23T15:59:54.265Z,103378.44
2023-01-23T16:03:55.733Z,103384.00
2023-01-23T16:08:00.942Z,103379.03
2023-01-23T16:12:03.594Z,103387.13
2023-01-23T16:16:20.115Z,103389.00
2023-01-23T16:20:26.619Z,103387.84
2023-01-23T16:24:29.430Z,103395.22
2023-01-23T16:28:32.413Z,103390.91
2023-01-23T16:32:34.137Z,103398.63
2023-01-23T16:36:35.656Z,103402.22
2023-01-23T16:40:37.679Z,103402.94
2023-01-23T16:44:39.172Z,103414.47
2023-01-23T16:48:40.877Z,103408.44
2023-01-23T16:52:50.673Z,103402.84
2023-01-23T16:56:53.508Z,103408.06
2023-01-23T17:01:01.726Z,103415.94
2023-01-23T17:05:03.241Z,103415.22
2023-01-23T17:09:04.709Z,103417.94
2023-01-23T17:13:06.284Z,103424.50
2023-01-23T17:17:14.123Z,103420.91
2023-01-23T17:21:21.203Z,103429.03
2023-01-23T17:25:26.721Z,103419.63
2023-01-23T17:29:28.350Z,103434.03
2023-01-23T17:33:31.800Z,103430.19
2023-01-23T17:37:34.304Z,103424.16
2023-01-23T17:41:35.743Z,103424.38
2023-01-23T17:45:37.728Z,103424.63
2023-01-23T17:49:40.267Z,103424.28
2023-01-23T17:53:42.328Z,103433.44
2023-01-23T17:57:44.535Z,103433.06
2023-01-23T18:01:47.626Z,103426.16
2023-01-23T18:05:49.223Z,103429.38
2023-01-23T18:09:51.105Z,103434.03
2023-01-23T18:14:15.214Z,103420.44
2023-01-23T18:18:37.463Z,103423.19
2023-01-23T18:22:39.224Z,103422.59
2023-01-23T18:26:49.048Z,103427.47
2023-01-23T18:31:03.560Z,103431.41
2023-01-23T18:35:11.194Z,103438.53
2023-01-23T18:39:24.857Z,103430.81
2023-01-23T18:43:38.522Z,103421.66
2023-01-23T18:47:40.285Z,103426.63
2023-01-23T18:51:41.793Z,103419.03
2023-01-23T18:55:55.660Z,103430.47
2023-01-23T19:00:12.460Z,103425.69
2023-01-23T19:04:15.709Z,103431.03
2023-01-23T19:08:28.040Z,103426.97
2023-01-23T19:13:02.803Z,103426.88
2023-01-23T19:17:29.578Z,103415.91
2023-01-23T19:21:32.033Z,103425.31
2023-01-23T19:25:33.910Z,103427.81
2023-01-23T19:29:35.512Z,103430.78
2023-01-23T19:33:37.016Z,103436.75
2023-01-23T19:37:40.374Z,103436.63
2023-01-23T19:41:44.328Z,103433.06
2023-01-23T19:45:46.434Z,103430.44
2023-01-23T19:49:47.970Z,103431.84
2023-01-23T19:53:49.479Z,103439.00
2023-01-23T19:57:51.009Z,103453.88
2023-01-23T20:01:53.470Z,103450.28
2023-01-23T20:05:55.697Z,103451.72
2023-01-23T20:09:57.275Z,103448.53
2023-01-23T20:13:58.778Z,103454.22
2023-01-23T20:18:00.292Z,103454.72
2023-01-23T20:22:01.765Z,103454.13
2023-01-23T20:26:03.238Z,103459.94
2023-01-23T20:30:07.219Z,103459.72
2023-01-23T20:34:08.678Z,103464.47
2023-01-23T20:38:11.382Z,103475.53
2023-01-23T20:42:12.817Z,103469.94
2023-01-23T20:46:16.056Z,103464.22
2023-01-23T20:50:17.704Z,103464.84
2023-01-23T20:54:19.352Z,103469.22
2023-01-23T20:58:39.396Z,103476.97
2023-01-23T21:02:40.990Z,103476.59
2023-01-23T21:06:42.498Z,103477.81
2023-01-23T21:10:44.030Z,103477.22
2023-01-23T21:14:45.494Z,103488.97
2023-01-23T21:18:47.160Z,103490.63
2023-01-23T21:22:48.733Z,103492.22
2023-01-23T21:26:50.275Z,103487.53
2023-01-23T21:30:51.805Z,103477.66
2023-01-23T21:34:53.266Z,103478.53
2023-01-23T21:38:55.211Z,103487.19
2023-01-23T21:42:56.616Z,103481.25
2023-01-23T21:46:58.065Z,103481.81
2023-01-23T21:51:08.353Z,103482.31
2023-01-23T21:55:09.819Z,103477.53
2023-01-23T21:59:11.276Z,103486.03
2023-01-23T22:03:12.738Z,103493.03
2023-01-23T22:07:14.181Z,103488.75
2023-01-23T22:11:15.645Z,103476.34
2023-01-23T22:15:17.262Z,103472.91
2023-01-23T22:19:24.534Z,103468.84
2023-01-23T22:23:27.122Z,103474.94
2023-01-23T22:27:28.976Z,103474.69
2023-01-23T22:31:30.554Z,103477.06
2023-01-23T22:35:32.105Z,103487.91
2023-01-23T22:39:33.560Z,103487.31
2023-01-23T22:43:35.005Z,103490.50
2023-01-23T22:47:36.486Z,103494.22
2023-01-23T22:51:38.013Z,103490.72
2023-01-23T22:55:39.430Z,103489.78
2023-01-23T22:59:40.921Z,103487.78
2023-01-23T23:03:42.971Z,103486.94
2023-01-23T23:07:44.488Z,103486.56
2023-01-23T23:11:48.944Z,103487.28
2023-01-23T23:15:50.426Z,103499.09
2023-01-23T23:19:51.853Z,103496.09
2023-01-23T23:23:59.691Z,103476.44
2023-01-23T23:28:01.365Z,103481.06
2023-01-23T23:32:03.015Z,103483.94
2023-01-23T23:36:05.004Z,103475.50
2023-01-23T23:40:07.055Z,103465.97
2023-01-23T23:44:08.954Z,103465.16
2023-01-23T23:48:10.479Z,103471.13
2023-01-23T23:52:11.898Z,103460.78
2023-01-23T23:56:20.207Z,103465.25
